Adrian, Washington
Current Conditions -  °F | °C
As of 7:53 AM on Monday 24 Nov 2014 (Local Time) from KEPH Reporting Station
Clear Clear  
Wind Chill: 33°   Ceiling: Unl
Heat Index: 33°   Visibility: 10mi
Dew Point: 28°   Wind: 3mph
Humidity: 82%   Direction: 130°SE
Pressure: 30.31"   Gusts: NA
Location:  47.4314°N, 119.485°W
Report Text: KEPH 241553Z AUTO 13003KT 10SM CLR 01/M02 A3031 RMK AO2 SLP276 T00061022 $
Loading
Personal Weather Stations






























Interactive Weather Map New forecast layout! Learn more

10-Day Weather Forecast

Advertisements
Track Severe Weather on mobile